sensor_id;sensor_type;location;lat;lon;timestamp;temperature;humidity
44900;DHT22;30628;51.188;6.770;2023-08-20T17:15:49;27.90;99.90
44900;DHT22;30628;51.188;6.770;2023-08-20T17:18:16;27.70;99.90
44900;DHT22;30628;51.188;6.770;2023-08-20T17:20:42;27.60;99.90
44900;DHT22;30628;51.188;6.770;2023-08-20T17:23:07;27.50;99.90
44900;DHT22;30628;51.188;6.770;2023-08-20T17:25:33;27.60;99.90
44900;DHT22;30628;51.188;6.770;2023-08-20T17:27:58;27.50;99.90
44900;DHT22;30628;51.188;6.770;2023-08-20T17:30:24;27.50;99.90
44900;DHT22;30628;51.188;6.770;2023-08-20T17:32:50;27.60;99.90
44900;DHT22;30628;51.188;6.770;2023-08-20T17:35:15;27.60;99.90
44900;DHT22;30628;51.188;6.770;2023-08-20T17:37:41;27.60;99.90
44900;DHT22;30628;51.188;6.770;2023-08-20T17:40:07;27.60;99.90
44900;DHT22;30628;51.188;6.770;2023-08-20T17:42:36;27.60;99.90
44900;DHT22;30628;51.188;6.770;2023-08-20T17:45:02;27.60;99.90
44900;DHT22;30628;51.188;6.770;2023-08-20T17:47:27;27.60;99.90
44900;DHT22;30628;51.188;6.770;2023-08-20T17:49:53;27.60;99.90
44900;DHT22;30628;51.188;6.770;2023-08-20T17:52:20;27.50;99.90
44900;DHT22;30628;51.188;6.770;2023-08-20T17:54:47;27.60;99.90
44900;DHT22;30628;51.188;6.770;2023-08-20T17:57:12;27.70;99.90
44900;DHT22;30628;51.188;6.770;2023-08-20T17:59:38;27.60;99.90
44900;DHT22;30628;51.188;6.770;2023-08-20T18:02:04;27.50;99.90
44900;DHT22;30628;51.188;6.770;2023-08-20T18:04:30;27.50;99.90
44900;DHT22;30628;51.188;6.770;2023-08-20T18:06:55;27.50;99.90
44900;DHT22;30628;51.188;6.770;2023-08-20T18:09:21;27.30;99.90
44900;DHT22;30628;51.188;6.770;2023-08-20T18:11:47;27.30;99.90
44900;DHT22;30628;51.188;6.770;2023-08-20T18:14:12;27.20;99.90
44900;DHT22;30628;51.188;6.770;2023-08-20T18:16:38;27.00;99.90
44900;DHT22;30628;51.188;6.770;2023-08-20T18:19:04;27.00;99.90
44900;DHT22;30628;51.188;6.770;2023-08-20T18:21:29;26.90;99.90
44900;DHT22;30628;51.188;6.770;2023-08-20T18:23:55;26.80;99.90
44900;DHT22;30628;51.188;6.770;2023-08-20T18:26:21;26.80;99.90
44900;DHT22;30628;51.188;6.770;2023-08-20T18:28:47;26.70;99.90
44900;DHT22;30628;51.188;6.770;2023-08-20T18:31:12;26.60;99.90
44900;DHT22;30628;51.188;6.770;2023-08-20T18:33:38;26.60;99.90
44900;DHT22;30628;51.188;6.770;2023-08-20T18:36:04;26.50;99.90
44900;DHT22;30628;51.188;6.770;2023-08-20T18:41:02;26.40;99.90
44900;DHT22;30628;51.188;6.770;2023-08-20T18:43:28;26.40;99.90
44900;DHT22;30628;51.188;6.770;2023-08-20T18:45:54;26.30;99.90
44900;DHT22;30628;51.188;6.770;2023-08-20T18:48:20;26.30;99.90
44900;DHT22;30628;51.188;6.770;2023-08-20T18:50:49;26.30;99.90
44900;DHT22;30628;51.188;6.770;2023-08-20T18:53:15;26.30;99.90
44900;DHT22;30628;51.188;6.770;2023-08-20T18:55:40;26.30;99.90
44900;DHT22;30628;51.188;6.770;2023-08-20T18:58:06;26.20;99.90
44900;DHT22;30628;51.188;6.770;2023-08-20T19:00:33;26.10;99.90
44900;DHT22;30628;51.188;6.770;2023-08-20T19:02:58;26.10;99.90
44900;DHT22;30628;51.188;6.770;2023-08-20T19:05:24;26.10;99.90
44900;DHT22;30628;51.188;6.770;2023-08-20T19:07:49;26.00;99.90
44900;DHT22;30628;51.188;6.770;2023-08-20T19:10:18;25.90;99.90
44900;DHT22;30628;51.188;6.770;2023-08-20T19:12:44;25.80;99.90
44900;DHT22;30628;51.188;6.770;2023-08-20T19:15:10;25.70;99.90
44900;DHT22;30628;51.188;6.770;2023-08-20T19:17:36;25.70;99.90
44900;DHT22;30628;51.188;6.770;2023-08-20T19:20:03;25.80;99.90
44900;DHT22;30628;51.188;6.770;2023-08-20T19:22:31;25.80;99.90
44900;DHT22;30628;51.188;6.770;2023-08-20T19:24:56;25.80;99.90
44900;DHT22;30628;51.188;6.770;2023-08-20T19:27:22;25.80;99.90
44900;DHT22;30628;51.188;6.770;2023-08-20T19:29:48;25.70;99.90
44900;DHT22;30628;51.188;6.770;2023-08-20T19:32:13;25.60;99.90
44900;DHT22;30628;51.188;6.770;2023-08-20T19:34:39;25.50;99.90
44900;DHT22;30628;51.188;6.770;2023-08-20T19:37:04;25.50;99.90
44900;DHT22;30628;51.188;6.770;2023-08-20T19:39:30;25.50;99.90
44900;DHT22;30628;51.188;6.770;2023-08-20T19:41:56;25.40;99.90
44900;DHT22;30628;51.188;6.770;2023-08-20T19:44:21;25.40;99.90
44900;DHT22;30628;51.188;6.770;2023-08-20T19:46:47;25.40;99.90
44900;DHT22;30628;51.188;6.770;2023-08-20T19:49:12;25.40;99.90
44900;DHT22;30628;51.188;6.770;2023-08-20T19:51:38;25.40;99.90
44900;DHT22;30628;51.188;6.770;2023-08-20T19:54:09;25.30;99.90
44900;DHT22;30628;51.188;6.770;2023-08-20T19:56:34;25.20;99.90
44900;DHT22;30628;51.188;6.770;2023-08-20T19:59:00;25.20;99.90
44900;DHT22;30628;51.188;6.770;2023-08-20T20:01:26;25.20;99.90
44900;DHT22;30628;51.188;6.770;2023-08-20T20:03:54;25.20;99.90
44900;DHT22;30628;51.188;6.770;2023-08-20T20:06:22;25.20;99.90
44900;DHT22;30628;51.188;6.770;2023-08-20T20:08:57;25.10;99.90
44900;DHT22;30628;51.188;6.770;2023-08-20T20:11:23;25.10;99.90
44900;DHT22;30628;51.188;6.770;2023-08-20T20:13:48;25.00;99.90
44900;DHT22;30628;51.188;6.770;2023-08-20T20:16:14;25.00;99.90
44900;DHT22;30628;51.188;6.770;2023-08-20T20:18:39;25.00;99.90
44900;DHT22;30628;51.188;6.770;2023-08-20T20:21:05;25.00;99.90
44900;DHT22;30628;51.188;6.770;2023-08-20T20:23:30;25.00;99.90
44900;DHT22;30628;51.188;6.770;2023-08-20T20:25:56;25.00;99.90
44900;DHT22;30628;51.188;6.770;2023-08-20T20:28:22;25.00;99.90
44900;DHT22;30628;51.188;6.770;2023-08-20T20:30:47;25.00;99.90
44900;DHT22;30628;51.188;6.770;2023-08-20T20:33:13;24.90;99.90
44900;DHT22;30628;51.188;6.770;2023-08-20T20:35:39;24.90;99.90
44900;DHT22;30628;51.188;6.770;2023-08-20T20:38:04;24.90;99.90
44900;DHT22;30628;51.188;6.770;2023-08-20T20:40:30;25.00;99.90
44900;DHT22;30628;51.188;6.770;2023-08-20T20:42:57;25.00;99.90
44900;DHT22;30628;51.188;6.770;2023-08-20T20:45:23;24.90;99.90
44900;DHT22;30628;51.188;6.770;2023-08-20T20:47:49;24.80;99.90
44900;DHT22;30628;51.188;6.770;2023-08-20T20:50:16;24.80;99.90
44900;DHT22;30628;51.188;6.770;2023-08-20T20:52:41;24.80;99.90
44900;DHT22;30628;51.188;6.770;2023-08-20T20:55:07;24.80;99.90
44900;DHT22;30628;51.188;6.770;2023-08-20T20:57:33;24.70;99.90
44900;DHT22;30628;51.188;6.770;2023-08-20T20:59:59;24.70;99.90
44900;DHT22;30628;51.188;6.770;2023-08-20T21:02:24;24.60;99.90
44900;DHT22;30628;51.188;6.770;2023-08-20T21:04:50;24.60;99.90
44900;DHT22;30628;51.188;6.770;2023-08-20T21:07:16;24.60;99.90
44900;DHT22;30628;51.188;6.770;2023-08-20T21:09:41;24.60;99.90
44900;DHT22;30628;51.188;6.770;2023-08-20T21:12:07;24.60;99.90
44900;DHT22;30628;51.188;6.770;2023-08-20T21:14:33;24.60;99.90
44900;DHT22;30628;51.188;6.770;2023-08-20T21:16:58;24.70;99.90
44900;DHT22;30628;51.188;6.770;2023-08-20T21:19:24;24.70;99.90
44900;DHT22;30628;51.188;6.770;2023-08-20T21:21:54;24.60;99.90
44900;DHT22;30628;51.188;6.770;2023-08-20T21:24:21;24.60;99.90
44900;DHT22;30628;51.188;6.770;2023-08-20T21:26:47;24.60;99.90
44900;DHT22;30628;51.188;6.770;2023-08-20T21:29:12;24.60;99.90
44900;DHT22;30628;51.188;6.770;2023-08-20T21:31:38;24.60;99.90
44900;DHT22;30628;51.188;6.770;2023-08-20T21:34:04;24.50;99.90
44900;DHT22;30628;51.188;6.770;2023-08-20T21:36:29;24.50;99.90
44900;DHT22;30628;51.188;6.770;2023-08-20T21:38:55;24.40;99.90
44900;DHT22;30628;51.188;6.770;2023-08-20T21:41:20;24.40;99.90
44900;DHT22;30628;51.188;6.770;2023-08-20T21:43:46;24.40;99.90
44900;DHT22;30628;51.188;6.770;2023-08-20T21:46:13;24.40;99.90
44900;DHT22;30628;51.188;6.770;2023-08-20T21:48:38;24.40;99.90
44900;DHT22;30628;51.188;6.770;2023-08-20T21:51:04;24.30;99.90
44900;DHT22;30628;51.188;6.770;2023-08-20T21:53:30;24.30;99.90
44900;DHT22;30628;51.188;6.770;2023-08-20T21:55:56;24.30;99.90
44900;DHT22;30628;51.188;6.770;2023-08-20T21:58:22;24.30;99.90
44900;DHT22;30628;51.188;6.770;2023-08-20T22:00:48;24.30;99.90
44900;DHT22;30628;51.188;6.770;2023-08-20T22:03:13;24.40;99.90
44900;DHT22;30628;51.188;6.770;2023-08-20T22:05:39;24.30;99.90
44900;DHT22;30628;51.188;6.770;2023-08-20T22:08:05;24.40;99.90
44900;DHT22;30628;51.188;6.770;2023-08-20T22:10:30;24.30;99.90
44900;DHT22;30628;51.188;6.770;2023-08-20T22:12:56;24.30;99.90
44900;DHT22;30628;51.188;6.770;2023-08-20T22:15:22;24.40;99.90
44900;DHT22;30628;51.188;6.770;2023-08-20T22:17:47;24.40;99.90
44900;DHT22;30628;51.188;6.770;2023-08-20T22:20:13;24.40;99.90
44900;DHT22;30628;51.188;6.770;2023-08-20T22:22:40;24.40;99.90
44900;DHT22;30628;51.188;6.770;2023-08-20T22:25:09;24.40;99.90
44900;DHT22;30628;51.188;6.770;2023-08-20T22:27:35;24.40;99.90
44900;DHT22;30628;51.188;6.770;2023-08-20T22:30:03;24.40;99.90
44900;DHT22;30628;51.188;6.770;2023-08-20T22:32:38;24.30;99.90
44900;DHT22;30628;51.188;6.770;2023-08-20T22:35:04;24.20;99.90
44900;DHT22;30628;51.188;6.770;2023-08-20T22:37:30;24.20;99.90
44900;DHT22;30628;51.188;6.770;2023-08-20T22:39:55;24.20;99.90
44900;DHT22;30628;51.188;6.770;2023-08-20T22:42:21;24.20;99.90
44900;DHT22;30628;51.188;6.770;2023-08-20T22:44:47;24.10;99.90
44900;DHT22;30628;51.188;6.770;2023-08-20T22:47:12;24.10;99.90
44900;DHT22;30628;51.188;6.770;2023-08-20T22:49:38;24.10;99.90
44900;DHT22;30628;51.188;6.770;2023-08-20T22:52:04;24.10;99.90
44900;DHT22;30628;51.188;6.770;2023-08-20T22:54:29;24.00;99.90
44900;DHT22;30628;51.188;6.770;2023-08-20T22:56:55;23.90;99.90
44900;DHT22;30628;51.188;6.770;2023-08-20T22:59:20;24.00;99.90
44900;DHT22;30628;51.188;6.770;2023-08-20T23:01:46;24.10;99.90
44900;DHT22;30628;51.188;6.770;2023-08-20T23:04:12;24.10;99.90
44900;DHT22;30628;51.188;6.770;2023-08-20T23:06:39;24.10;99.90
44900;DHT22;30628;51.188;6.770;2023-08-20T23:09:05;24.10;99.90
44900;DHT22;30628;51.188;6.770;2023-08-20T23:11:31;24.10;99.90
44900;DHT22;30628;51.188;6.770;2023-08-20T23:13:56;24.00;99.90
44900;DHT22;30628;51.188;6.770;2023-08-20T23:16:22;23.90;99.90
44900;DHT22;30628;51.188;6.770;2023-08-20T23:18:47;23.90;99.90
44900;DHT22;30628;51.188;6.770;2023-08-20T23:21:13;23.90;99.90
44900;DHT22;30628;51.188;6.770;2023-08-20T23:23:39;23.80;99.90
44900;DHT22;30628;51.188;6.770;2023-08-20T23:26:05;23.80;99.90
44900;DHT22;30628;51.188;6.770;2023-08-20T23:28:30;23.70;99.90
44900;DHT22;30628;51.188;6.770;2023-08-20T23:30:56;23.70;99.90
44900;DHT22;30628;51.188;6.770;2023-08-20T23:33:22;23.70;99.90
44900;DHT22;30628;51.188;6.770;2023-08-20T23:35:47;23.70;99.90
44900;DHT22;30628;51.188;6.770;2023-08-20T23:38:13;23.60;99.90
44900;DHT22;30628;51.188;6.770;2023-08-20T23:40:39;23.50;99.90
44900;DHT22;30628;51.188;6.770;2023-08-20T23:43:05;23.50;99.90
44900;DHT22;30628;51.188;6.770;2023-08-20T23:45:30;23.50;99.90
44900;DHT22;30628;51.188;6.770;2023-08-20T23:47:56;23.40;99.90
44900;DHT22;30628;51.188;6.770;2023-08-20T23:50:21;23.40;99.90
44900;DHT22;30628;51.188;6.770;2023-08-20T23:52:47;23.50;99.90
44900;DHT22;30628;51.188;6.770;2023-08-20T23:55:13;23.70;99.90
44900;DHT22;30628;51.188;6.770;2023-08-20T23:57:39;23.80;99.90
